Albany, Georgia
Current Conditions -  °F | °C
As of 10:53 PM on Saturday 24 Jan 2015 (Local Time) from KABY Reporting Station
Clear Clear  
Wind Chill: 37°   Ceiling: Unl
Heat Index: 37°   Visibility: 10mi
Dew Point: 31°   Wind: 3mph
Humidity: 79%   Direction: 290°WNW
Pressure: 30.04"   Gusts: NA
Location:  31.58°N, 84.15°W
Report Text: KABY 250353Z AUTO 29003KT 10SM CLR 03/M01 A3004 RMK AO2 SLP172 T00281006
Loading
Personal Weather Stations






























Interactive Weather Map New forecast layout! Learn more

10-Day Weather Forecast

Advertisements
Track Severe Weather on mobile